sensor_id;sensor_type;location;lat;lon;timestamp;pressure;altitude;pressure_sealevel;temperature;humidity
30875;BME280;17581;43.222;27.924;2023-02-21T00:00:52;100739.81;;;8.49;53.83
30875;BME280;17581;43.222;27.924;2023-02-21T00:03:36;100742.78;;;8.45;54.55
30875;BME280;17581;43.222;27.924;2023-02-21T00:06:19;100734.44;;;8.37;54.11
30875;BME280;17581;43.222;27.924;2023-02-21T00:09:03;100742.69;;;8.46;54.23
30875;BME280;17581;43.222;27.924;2023-02-21T00:11:47;100735.09;;;8.53;54.40
30875;BME280;17581;43.222;27.924;2023-02-21T00:14:31;100737.63;;;8.54;54.15
30875;BME280;17581;43.222;27.924;2023-02-21T00:17:15;100732.50;;;8.51;54.56
30875;BME280;17581;43.222;27.924;2023-02-21T00:19:59;100731.22;;;8.44;54.67
30875;BME280;17581;43.222;27.924;2023-02-21T00:22:44;100716.63;;;8.48;54.62
30875;BME280;17581;43.222;27.924;2023-02-21T00:25:28;100718.66;;;8.57;54.77
30875;BME280;17581;43.222;27.924;2023-02-21T00:28:12;100706.13;;;8.58;54.53
30875;BME280;17581;43.222;27.924;2023-02-21T00:30:56;100700.63;;;8.59;54.79
30875;BME280;17581;43.222;27.924;2023-02-21T00:33:40;100698.28;;;8.67;54.67
30875;BME280;17581;43.222;27.924;2023-02-21T00:36:24;100704.88;;;8.74;54.67
30875;BME280;17581;43.222;27.924;2023-02-21T00:39:08;100689.59;;;8.64;54.40
30875;BME280;17581;43.222;27.924;2023-02-21T00:41:52;100688.31;;;8.57;54.90
30875;BME280;17581;43.222;27.924;2023-02-21T00:44:35;100694.31;;;8.60;54.81
30875;BME280;17581;43.222;27.924;2023-02-21T00:47:19;100681.41;;;8.65;54.78
30875;BME280;17581;43.222;27.924;2023-02-21T00:50:03;100688.50;;;8.66;54.94
30875;BME280;17581;43.222;27.924;2023-02-21T00:52:48;100680.69;;;8.63;55.35
30875;BME280;17581;43.222;27.924;2023-02-21T00:55:31;100678.22;;;8.60;55.36
30875;BME280;17581;43.222;27.924;2023-02-21T00:58:15;100669.22;;;8.61;55.64
30875;BME280;17581;43.222;27.924;2023-02-21T01:00:59;100671.97;;;8.72;55.41
30875;BME280;17581;43.222;27.924;2023-02-21T01:03:43;100674.19;;;8.79;55.48
30875;BME280;17581;43.222;27.924;2023-02-21T01:06:27;100675.16;;;8.77;55.18
30875;BME280;17581;43.222;27.924;2023-02-21T01:09:11;100663.00;;;8.61;55.47
30875;BME280;17581;43.222;27.924;2023-02-21T01:11:55;100661.97;;;8.74;55.55
30875;BME280;17581;43.222;27.924;2023-02-21T01:14:39;100665.84;;;8.83;55.70
30875;BME280;17581;43.222;27.924;2023-02-21T01:17:23;100661.34;;;8.84;55.78
30875;BME280;17581;43.222;27.924;2023-02-21T01:20:07;100658.19;;;8.90;55.30
30875;BME280;17581;43.222;27.924;2023-02-21T01:22:51;100653.66;;;8.90;55.27
30875;BME280;17581;43.222;27.924;2023-02-21T01:25:35;100653.78;;;8.89;55.32
30875;BME280;17581;43.222;27.924;2023-02-21T01:28:19;100651.56;;;8.83;55.49
30875;BME280;17581;43.222;27.924;2023-02-21T01:31:03;100638.94;;;8.72;55.68
30875;BME280;17581;43.222;27.924;2023-02-21T01:33:47;100640.06;;;8.57;56.60
30875;BME280;17581;43.222;27.924;2023-02-21T01:36:31;100616.28;;;8.52;56.26
30875;BME280;17581;43.222;27.924;2023-02-21T01:39:15;100628.59;;;8.55;56.94
30875;BME280;17581;43.222;27.924;2023-02-21T01:42:00;100622.34;;;8.67;56.76
30875;BME280;17581;43.222;27.924;2023-02-21T01:44:45;100618.56;;;8.69;56.96
30875;BME280;17581;43.222;27.924;2023-02-21T01:47:30;100612.03;;;8.73;56.57
30875;BME280;17581;43.222;27.924;2023-02-21T01:50:25;100608.66;;;8.83;56.47
30875;BME280;17581;43.222;27.924;2023-02-21T01:53:15;100607.47;;;8.87;56.26
30875;BME280;17581;43.222;27.924;2023-02-21T01:56:01;100598.44;;;8.88;56.05
30875;BME280;17581;43.222;27.924;2023-02-21T01:58:47;100591.88;;;8.92;56.26
30875;BME280;17581;43.222;27.924;2023-02-21T02:04:34;100581.38;;;8.89;56.15
30875;BME280;17581;43.222;27.924;2023-02-21T02:07:18;100565.28;;;8.89;56.39
30875;BME280;17581;43.222;27.924;2023-02-21T02:10:03;100566.16;;;8.89;56.70
30875;BME280;17581;43.222;27.924;2023-02-21T02:35:39;100528.72;;;9.34;54.98
30875;BME280;17581;43.222;27.924;2023-02-21T02:46:19;100534.50;;;9.62;53.99
30875;BME280;17581;43.222;27.924;2023-02-21T02:48:50;100543.41;;;9.74;53.58
30875;BME280;17581;43.222;27.924;2023-02-21T02:51:18;100551.59;;;9.83;53.18
30875;BME280;17581;43.222;27.924;2023-02-21T02:53:44;100556.94;;;9.95;53.14
30875;BME280;17581;43.222;27.924;2023-02-21T02:56:12;100558.91;;;10.04;52.51
30875;BME280;17581;43.222;27.924;2023-02-21T03:07:24;100535.69;;;10.25;51.62
30875;BME280;17581;43.222;27.924;2023-02-21T03:13:02;100523.38;;;10.22;51.64
30875;BME280;17581;43.222;27.924;2023-02-21T03:18:42;100532.50;;;10.31;51.01
30875;BME280;17581;43.222;27.924;2023-02-21T03:21:22;100532.50;;;10.42;51.06
30875;BME280;17581;43.222;27.924;2023-02-21T03:23:51;100536.56;;;10.36;51.18
30875;BME280;17581;43.222;27.924;2023-02-21T03:26:17;100531.28;;;10.35;51.13
30875;BME280;17581;43.222;27.924;2023-02-21T03:28:45;100524.94;;;10.36;51.00
30875;BME280;17581;43.222;27.924;2023-02-21T03:31:12;100528.69;;;10.45;50.51
30875;BME280;17581;43.222;27.924;2023-02-21T03:33:38;100523.22;;;10.35;50.74
30875;BME280;17581;43.222;27.924;2023-02-21T03:36:05;100529.31;;;10.37;50.90
30875;BME280;17581;43.222;27.924;2023-02-21T03:38:32;100527.50;;;10.37;50.86
30875;BME280;17581;43.222;27.924;2023-02-21T03:40:58;100547.63;;;10.43;50.85
30875;BME280;17581;43.222;27.924;2023-02-21T03:43:23;100533.22;;;10.44;50.67
30875;BME280;17581;43.222;27.924;2023-02-21T03:45:49;100526.72;;;10.47;50.77
30875;BME280;17581;43.222;27.924;2023-02-21T03:48:14;100554.56;;;10.57;50.10
30875;BME280;17581;43.222;27.924;2023-02-21T03:50:40;100552.59;;;10.59;50.11
30875;BME280;17581;43.222;27.924;2023-02-21T03:53:05;100550.91;;;10.58;49.87
30875;BME280;17581;43.222;27.924;2023-02-21T03:55:31;100557.13;;;10.58;50.12
30875;BME280;17581;43.222;27.924;2023-02-21T03:57:56;100543.09;;;10.55;50.18
30875;BME280;17581;43.222;27.924;2023-02-21T04:00:22;100549.31;;;10.55;49.49
30875;BME280;17581;43.222;27.924;2023-02-21T04:02:47;100540.69;;;10.41;49.94
30875;BME280;17581;43.222;27.924;2023-02-21T04:05:13;100549.56;;;10.52;49.75
30875;BME280;17581;43.222;27.924;2023-02-21T04:07:38;100535.44;;;10.39;50.19
30875;BME280;17581;43.222;27.924;2023-02-21T04:10:04;100541.88;;;10.48;50.18
30875;BME280;17581;43.222;27.924;2023-02-21T04:12:29;100548.84;;;10.50;49.88
30875;BME280;17581;43.222;27.924;2023-02-21T04:14:55;100525.88;;;10.46;50.25
30875;BME280;17581;43.222;27.924;2023-02-21T04:17:22;100524.66;;;10.50;49.74
30875;BME280;17581;43.222;27.924;2023-02-21T04:19:48;100519.47;;;10.58;49.39
30875;BME280;17581;43.222;27.924;2023-02-21T04:22:14;100503.09;;;10.61;49.14
30875;BME280;17581;43.222;27.924;2023-02-21T04:24:39;100495.41;;;10.57;49.50
30875;BME280;17581;43.222;27.924;2023-02-21T04:27:04;100501.13;;;10.63;49.51
30875;BME280;17581;43.222;27.924;2023-02-21T04:29:30;100502.00;;;10.64;49.34
30875;BME280;17581;43.222;27.924;2023-02-21T04:31:55;100501.84;;;10.65;49.31
30875;BME280;17581;43.222;27.924;2023-02-21T04:34:21;100492.66;;;10.68;48.86
30875;BME280;17581;43.222;27.924;2023-02-21T04:36:47;100499.00;;;10.78;49.04
30875;BME280;17581;43.222;27.924;2023-02-21T04:39:12;100486.84;;;10.83;48.50
30875;BME280;17581;43.222;27.924;2023-02-21T04:41:38;100498.81;;;10.90;48.07
30875;BME280;17581;43.222;27.924;2023-02-21T04:44:04;100492.31;;;10.93;48.38
30875;BME280;17581;43.222;27.924;2023-02-21T04:46:30;100482.75;;;11.00;48.15
30875;BME280;17581;43.222;27.924;2023-02-21T04:48:56;100478.22;;;11.01;47.93
30875;BME280;17581;43.222;27.924;2023-02-21T04:51:24;100478.78;;;11.04;47.84
30875;BME280;17581;43.222;27.924;2023-02-21T04:53:50;100474.25;;;11.05;47.81
30875;BME280;17581;43.222;27.924;2023-02-21T04:56:20;100495.00;;;11.14;48.03
30875;BME280;17581;43.222;27.924;2023-02-21T04:58:46;100496.72;;;11.15;48.05
30875;BME280;17581;43.222;27.924;2023-02-21T05:01:14;100495.94;;;11.24;47.99
30875;BME280;17581;43.222;27.924;2023-02-21T05:03:40;100493.94;;;11.26;47.95
30875;BME280;17581;43.222;27.924;2023-02-21T05:06:06;100488.28;;;11.29;47.57
30875;BME280;17581;43.222;27.924;2023-02-21T05:08:31;100482.66;;;11.32;47.78
30875;BME280;17581;43.222;27.924;2023-02-21T05:10:56;100482.38;;;11.35;47.65
30875;BME280;17581;43.222;27.924;2023-02-21T05:13:22;100492.72;;;11.30;47.84
30875;BME280;17581;43.222;27.924;2023-02-21T05:15:48;100476.41;;;11.31;47.27
30875;BME280;17581;43.222;27.924;2023-02-21T05:18:14;100500.56;;;11.42;47.63
30875;BME280;17581;43.222;27.924;2023-02-21T05:20:47;100506.81;;;11.43;47.46
30875;BME280;17581;43.222;27.924;2023-02-21T05:23:12;100512.91;;;11.45;47.24
30875;BME280;17581;43.222;27.924;2023-02-21T05:25:41;100507.25;;;11.48;47.15
30875;BME280;17581;43.222;27.924;2023-02-21T05:28:07;100501.34;;;11.54;46.74
30875;BME280;17581;43.222;27.924;2023-02-21T05:30:32;100489.97;;;11.51;46.71
30875;BME280;17581;43.222;27.924;2023-02-21T05:32:58;100484.47;;;11.52;47.08
30875;BME280;17581;43.222;27.924;2023-02-21T05:35:23;100491.28;;;11.56;47.27
30875;BME280;17581;43.222;27.924;2023-02-21T05:37:49;100484.31;;;11.54;47.58
30875;BME280;17581;43.222;27.924;2023-02-21T05:40:17;100492.66;;;11.51;47.36
30875;BME280;17581;43.222;27.924;2023-02-21T05:42:43;100494.13;;;11.55;46.72
30875;BME280;17581;43.222;27.924;2023-02-21T05:45:10;100497.66;;;11.55;47.36
30875;BME280;17581;43.222;27.924;2023-02-21T05:47:35;100499.81;;;11.61;47.32
30875;BME280;17581;43.222;27.924;2023-02-21T05:50:03;100504.94;;;11.64;46.82
30875;BME280;17581;43.222;27.924;2023-02-21T05:52:28;100505.28;;;11.71;46.66
30875;BME280;17581;43.222;27.924;2023-02-21T05:54:54;100496.78;;;11.75;46.90
30875;BME280;17581;43.222;27.924;2023-02-21T05:57:19;100503.63;;;11.79;46.97
30875;BME280;17581;43.222;27.924;2023-02-21T05:59:45;100501.94;;;11.88;46.70
30875;BME280;17581;43.222;27.924;2023-02-21T06:02:15;100498.88;;;11.92;46.61
30875;BME280;17581;43.222;27.924;2023-02-21T06:04:41;100490.91;;;11.91;46.20
30875;BME280;17581;43.222;27.924;2023-02-21T06:07:06;100493.75;;;11.99;46.09
30875;BME280;17581;43.222;27.924;2023-02-21T06:09:32;100509.81;;;12.00;46.13
30875;BME280;17581;43.222;27.924;2023-02-21T06:11:58;100505.84;;;12.05;45.97
30875;BME280;17581;43.222;27.924;2023-02-21T06:14:24;100508.13;;;12.09;46.37
30875;BME280;17581;43.222;27.924;2023-02-21T06:16:49;100511.44;;;12.22;46.03
30875;BME280;17581;43.222;27.924;2023-02-21T06:19:17;100503.78;;;12.27;45.92
30875;BME280;17581;43.222;27.924;2023-02-21T06:21:43;100496.09;;;12.32;45.98
30875;BME280;17581;43.222;27.924;2023-02-21T06:24:10;100502.97;;;12.46;45.61
30875;BME280;17581;43.222;27.924;2023-02-21T06:26:35;100513.19;;;12.52;45.78
30875;BME280;17581;43.222;27.924;2023-02-21T06:29:05;100509.50;;;12.53;45.28
30875;BME280;17581;43.222;27.924;2023-02-21T06:31:31;100515.91;;;12.71;45.35
30875;BME280;17581;43.222;27.924;2023-02-21T06:33:58;100518.03;;;12.77;45.07
30875;BME280;17581;43.222;27.924;2023-02-21T06:36:25;100524.00;;;12.90;45.21
30875;BME280;17581;43.222;27.924;2023-02-21T06:38:53;100512.66;;;12.96;44.82
30875;BME280;17581;43.222;27.924;2023-02-21T06:41:23;100511.53;;;13.08;44.66
30875;BME280;17581;43.222;27.924;2023-02-21T06:43:49;100495.72;;;13.04;44.59
30875;BME280;17581;43.222;27.924;2023-02-21T06:46:16;100512.34;;;13.19;44.60
30875;BME280;17581;43.222;27.924;2023-02-21T06:48:42;100511.78;;;13.25;44.65
30875;BME280;17581;43.222;27.924;2023-02-21T06:51:07;100502.09;;;13.32;44.67
30875;BME280;17581;43.222;27.924;2023-02-21T06:53:36;100497.13;;;13.37;44.58
30875;BME280;17581;43.222;27.924;2023-02-21T06:56:02;100487.84;;;13.39;44.57
30875;BME280;17581;43.222;27.924;2023-02-21T06:58:27;100505.47;;;13.53;44.25
30875;BME280;17581;43.222;27.924;2023-02-21T07:00:52;100506.06;;;13.47;44.21
30875;BME280;17581;43.222;27.924;2023-02-21T07:03:18;100503.47;;;13.55;44.06
30875;BME280;17581;43.222;27.924;2023-02-21T07:05:43;100495.88;;;13.68;43.77
30875;BME280;17581;43.222;27.924;2023-02-21T07:08:09;100502.41;;;13.75;43.47
30875;BME280;17581;43.222;27.924;2023-02-21T07:10:35;100494.69;;;13.80;43.40
30875;BME280;17581;43.222;27.924;2023-02-21T07:13:00;100488.88;;;13.85;43.09
30875;BME280;17581;43.222;27.924;2023-02-21T07:15:26;100490.25;;;13.89;43.11
30875;BME280;17581;43.222;27.924;2023-02-21T07:17:51;100479.19;;;13.82;42.94
30875;BME280;17581;43.222;27.924;2023-02-21T07:20:17;100490.50;;;13.95;42.84
30875;BME280;17581;43.222;27.924;2023-02-21T07:22:42;100469.19;;;13.92;43.02
30875;BME280;17581;43.222;27.924;2023-02-21T07:25:15;100471.53;;;14.05;43.00
30875;BME280;17581;43.222;27.924;2023-02-21T07:27:41;100469.22;;;14.10;42.66
30875;BME280;17581;43.222;27.924;2023-02-21T07:30:07;100459.97;;;14.12;42.83
30875;BME280;17581;43.222;27.924;2023-02-21T07:32:33;100469.88;;;14.22;42.61
30875;BME280;17581;43.222;27.924;2023-02-21T07:34:58;100460.75;;;14.23;42.37
30875;BME280;17581;43.222;27.924;2023-02-21T07:37:24;100453.88;;;14.28;42.53
30875;BME280;17581;43.222;27.924;2023-02-21T07:39:52;100448.72;;;14.35;42.31
30875;BME280;17581;43.222;27.924;2023-02-21T07:42:17;100469.47;;;14.44;41.80
30875;BME280;17581;43.222;27.924;2023-02-21T07:44:42;100448.66;;;14.44;41.67
30875;BME280;17581;43.222;27.924;2023-02-21T07:47:08;100447.19;;;14.50;41.68
30875;BME280;17581;43.222;27.924;2023-02-21T07:49:38;100436.38;;;14.50;41.59
30875;BME280;17581;43.222;27.924;2023-02-21T07:52:04;100444.28;;;14.61;41.04
30875;BME280;17581;43.222;27.924;2023-02-21T07:54:30;100416.91;;;14.64;40.91
30875;BME280;17581;43.222;27.924;2023-02-21T07:56:55;100417.63;;;14.74;40.81
30875;BME280;17581;43.222;27.924;2023-02-21T07:59:21;100432.25;;;14.81;40.29
30875;BME280;17581;43.222;27.924;2023-02-21T08:01:47;100424.69;;;14.85;40.17
30875;BME280;17581;43.222;27.924;2023-02-21T08:04:13;100410.81;;;14.88;40.29
30875;BME280;17581;43.222;27.924;2023-02-21T08:06:39;100410.56;;;14.99;39.78
30875;BME280;17581;43.222;27.924;2023-02-21T08:09:04;100425.75;;;15.17;39.98
30875;BME280;17581;43.222;27.924;2023-02-21T08:11:30;100426.50;;;15.27;39.62
30875;BME280;17581;43.222;27.924;2023-02-21T08:13:56;100411.69;;;15.40;39.52
30875;BME280;17581;43.222;27.924;2023-02-21T08:16:22;100413.06;;;15.44;39.23
30875;BME280;17581;43.222;27.924;2023-02-21T08:18:48;100412.47;;;15.58;39.45
30875;BME280;17581;43.222;27.924;2023-02-21T08:21:15;100401.00;;;15.64;39.14
30875;BME280;17581;43.222;27.924;2023-02-21T08:23:41;100410.84;;;15.73;39.13
30875;BME280;17581;43.222;27.924;2023-02-21T08:26:07;100406.16;;;15.83;38.67
30875;BME280;17581;43.222;27.924;2023-02-21T08:28:33;100397.03;;;15.92;38.61
30875;BME280;17581;43.222;27.924;2023-02-21T08:30:58;100397.75;;;16.10;38.56
30875;BME280;17581;43.222;27.924;2023-02-21T08:33:24;100393.19;;;16.27;38.28
30875;BME280;17581;43.222;27.924;2023-02-21T08:35:49;100391.03;;;16.47;38.16
30875;BME280;17581;43.222;27.924;2023-02-21T08:38:18;100367.00;;;16.60;37.37
30875;BME280;17581;43.222;27.924;2023-02-21T08:40:43;100374.44;;;16.74;37.28
30875;BME280;17581;43.222;27.924;2023-02-21T08:43:09;100373.25;;;16.93;37.38
30875;BME280;17581;43.222;27.924;2023-02-21T08:45:35;100373.72;;;17.12;36.36
30875;BME280;17581;43.222;27.924;2023-02-21T08:48:01;100364.53;;;17.13;36.30
30875;BME280;17581;43.222;27.924;2023-02-21T08:50:27;100359.81;;;17.15;36.20
30875;BME280;17581;43.222;27.924;2023-02-21T08:52:53;100356.38;;;17.13;36.07
30875;BME280;17581;43.222;27.924;2023-02-21T08:55:19;100369.63;;;17.24;36.21
30875;BME280;17581;43.222;27.924;2023-02-21T08:57:47;100376.53;;;17.35;36.10
30875;BME280;17581;43.222;27.924;2023-02-21T09:00:14;100378.91;;;17.38;36.10
30875;BME280;17581;43.222;27.924;2023-02-21T09:02:40;100387.56;;;17.41;35.76
30875;BME280;17581;43.222;27.924;2023-02-21T09:05:11;100374.78;;;17.50;35.77
30875;BME280;17581;43.222;27.924;2023-02-21T09:07:37;100378.03;;;17.54;35.67
30875;BME280;17581;43.222;27.924;2023-02-21T09:10:03;100376.00;;;17.56;35.83
30875;BME280;17581;43.222;27.924;2023-02-21T09:12:29;100367.31;;;17.60;35.71
30875;BME280;17581;43.222;27.924;2023-02-21T09:14:55;100362.38;;;17.64;35.72
30875;BME280;17581;43.222;27.924;2023-02-21T09:17:20;100363.34;;;17.71;35.57
30875;BME280;17581;43.222;27.924;2023-02-21T09:19:45;100366.41;;;17.68;35.64
30875;BME280;17581;43.222;27.924;2023-02-21T09:22:11;100370.00;;;17.68;35.48
30875;BME280;17581;43.222;27.924;2023-02-21T09:24:37;100364.25;;;17.63;35.54
30875;BME280;17581;43.222;27.924;2023-02-21T09:27:03;100357.91;;;17.71;35.56
30875;BME280;17581;43.222;27.924;2023-02-21T09:29:30;100350.94;;;17.76;35.50
30875;BME280;17581;43.222;27.924;2023-02-21T09:31:56;100359.63;;;17.72;35.44
30875;BME280;17581;43.222;27.924;2023-02-21T09:34:22;100342.59;;;17.78;34.97
30875;BME280;17581;43.222;27.924;2023-02-21T09:36:48;100339.81;;;17.86;35.02
30875;BME280;17581;43.222;27.924;2023-02-21T09:39:15;100335.34;;;17.93;34.76
30875;BME280;17581;43.222;27.924;2023-02-21T09:41:41;100313.94;;;17.90;34.60
30875;BME280;17581;43.222;27.924;2023-02-21T09:44:21;100328.69;;;17.95;34.78
30875;BME280;17581;43.222;27.924;2023-02-21T09:46:50;100335.66;;;17.98;34.54
30875;BME280;17581;43.222;27.924;2023-02-21T09:49:27;100323.00;;;17.82;34.80
30875;BME280;17581;43.222;27.924;2023-02-21T09:51:55;100319.38;;;17.90;34.89
30875;BME280;17581;43.222;27.924;2023-02-21T09:54:26;100312.94;;;17.91;34.76
30875;BME280;17581;43.222;27.924;2023-02-21T09:56:59;100304.41;;;17.94;34.56
30875;BME280;17581;43.222;27.924;2023-02-21T09:59:25;100307.41;;;17.99;34.29
30875;BME280;17581;43.222;27.924;2023-02-21T10:10:05;100281.72;;;18.24;33.89
30875;BME280;17581;43.222;27.924;2023-02-21T10:12:39;100256.00;;;18.27;33.73
30875;BME280;17581;43.222;27.924;2023-02-21T10:17:52;100249.72;;;18.49;33.32
30875;BME280;17581;43.222;27.924;2023-02-21T10:22:52;100241.44;;;18.57;32.63
30875;BME280;17581;43.222;27.924;2023-02-21T10:25:23;100222.38;;;18.57;32.65
30875;BME280;17581;43.222;27.924;2023-02-21T10:27:51;100217.31;;;18.69;32.09
30875;BME280;17581;43.222;27.924;2023-02-21T10:30:37;100197.97;;;18.64;32.31
30875;BME280;17581;43.222;27.924;2023-02-21T10:33:05;100199.84;;;18.78;32.51
30875;BME280;17581;43.222;27.924;2023-02-21T10:35:35;100180.31;;;18.89;32.29
30875;BME280;17581;43.222;27.924;2023-02-21T10:38:13;100181.41;;;19.09;32.08
30875;BME280;17581;43.222;27.924;2023-02-21T10:40:45;100167.56;;;19.25;32.21
30875;BME280;17581;43.222;27.924;2023-02-21T10:43:25;100162.44;;;19.37;32.06
30875;BME280;17581;43.222;27.924;2023-02-21T10:46:07;100156.03;;;19.59;31.54
30875;BME280;17581;43.222;27.924;2023-02-21T10:48:36;100139.72;;;19.66;31.44
30875;BME280;17581;43.222;27.924;2023-02-21T10:53:34;100133.69;;;19.98;30.73
30875;BME280;17581;43.222;27.924;2023-02-21T10:59:05;100147.13;;;20.21;30.54
30875;BME280;17581;43.222;27.924;2023-02-21T11:01:42;100126.72;;;20.17;30.37
30875;BME280;17581;43.222;27.924;2023-02-21T11:06:46;100136.53;;;20.32;30.01
30875;BME280;17581;43.222;27.924;2023-02-21T11:12:23;100135.81;;;20.51;29.56
30875;BME280;17581;43.222;27.924;2023-02-21T11:19:55;100138.88;;;20.70;29.14
30875;BME280;17581;43.222;27.924;2023-02-21T11:22:34;100139.72;;;20.70;29.07
30875;BME280;17581;43.222;27.924;2023-02-21T11:25:30;100143.72;;;20.74;28.96
30875;BME280;17581;43.222;27.924;2023-02-21T11:30:48;100125.38;;;20.68;28.58
30875;BME280;17581;43.222;27.924;2023-02-21T11:33:19;100134.44;;;20.69;28.25
30875;BME280;17581;43.222;27.924;2023-02-21T11:35:47;100126.41;;;20.60;28.49
30875;BME280;17581;43.222;27.924;2023-02-21T11:38:36;100107.38;;;20.46;27.94
30875;BME280;17581;43.222;27.924;2023-02-21T11:41:20;100103.78;;;20.39;28.17
30875;BME280;17581;43.222;27.924;2023-02-21T11:43:50;100103.75;;;20.32;27.98
30875;BME280;17581;43.222;27.924;2023-02-21T11:46:38;100117.16;;;20.27;28.00
30875;BME280;17581;43.222;27.924;2023-02-21T11:51:44;100102.88;;;20.04;27.87
30875;BME280;17581;43.222;27.924;2023-02-21T11:54:11;100112.50;;;20.00;28.22
30875;BME280;17581;43.222;27.924;2023-02-21T11:56:48;100108.56;;;20.02;28.30
30875;BME280;17581;43.222;27.924;2023-02-21T12:02:23;100099.25;;;19.97;28.50
30875;BME280;17581;43.222;27.924;2023-02-21T12:15:56;100100.53;;;20.01;28.31
30875;BME280;17581;43.222;27.924;2023-02-21T12:38:04;100069.44;;;19.95;27.24
30875;BME280;17581;43.222;27.924;2023-02-21T12:41:07;100068.13;;;19.91;27.37
30875;BME280;17581;43.222;27.924;2023-02-21T12:48:50;100054.81;;;19.75;27.61
30875;BME280;17581;43.222;27.924;2023-02-21T12:51:21;100041.94;;;19.69;27.63
30875;BME280;17581;43.222;27.924;2023-02-21T12:53:54;100056.81;;;19.67;27.67
30875;BME280;17581;43.222;27.924;2023-02-21T12:56:44;100053.00;;;19.61;27.93
30875;BME280;17581;43.222;27.924;2023-02-21T12:59:22;100032.59;;;19.57;27.66
30875;BME280;17581;43.222;27.924;2023-02-21T13:01:57;100032.56;;;19.50;27.26
30875;BME280;17581;43.222;27.924;2023-02-21T13:04:47;100038.59;;;19.46;27.14
30875;BME280;17581;43.222;27.924;2023-02-21T13:15:25;100029.44;;;19.32;27.61
30875;BME280;17581;43.222;27.924;2023-02-21T13:17:59;100036.47;;;19.27;27.77
30875;BME280;17581;43.222;27.924;2023-02-21T13:20:29;100031.03;;;19.27;27.89
30875;BME280;17581;43.222;27.924;2023-02-21T13:29:12;100033.97;;;19.25;28.00
30875;BME280;17581;43.222;27.924;2023-02-21T13:31:41;100040.19;;;19.19;28.20
30875;BME280;17581;43.222;27.924;2023-02-21T13:34:08;100048.56;;;19.18;28.52
30875;BME280;17581;43.222;27.924;2023-02-21T13:39:29;100038.63;;;19.31;28.11
30875;BME280;17581;43.222;27.924;2023-02-21T13:42:16;100028.66;;;19.38;28.11
30875;BME280;17581;43.222;27.924;2023-02-21T13:44:48;100030.47;;;19.52;27.96
30875;BME280;17581;43.222;27.924;2023-02-21T13:47:17;100042.28;;;19.60;28.03
30875;BME280;17581;43.222;27.924;2023-02-21T13:49:56;100036.28;;;19.71;27.92
30875;BME280;17581;43.222;27.924;2023-02-21T14:10:54;100024.88;;;20.23;28.15
30875;BME280;17581;43.222;27.924;2023-02-21T14:15:55;100040.69;;;20.27;28.12
30875;BME280;17581;43.222;27.924;2023-02-21T14:18:30;100037.78;;;20.35;27.98
30875;BME280;17581;43.222;27.924;2023-02-21T14:21:14;100041.56;;;20.34;28.14
30875;BME280;17581;43.222;27.924;2023-02-21T14:23:49;100049.16;;;20.39;27.83
30875;BME280;17581;43.222;27.924;2023-02-21T14:37:35;100034.69;;;20.45;27.32
30875;BME280;17581;43.222;27.924;2023-02-21T14:45:57;100033.19;;;20.36;27.48
30875;BME280;17581;43.222;27.924;2023-02-21T15:02:28;100043.91;;;20.09;28.05
30875;BME280;17581;43.222;27.924;2023-02-21T15:07:59;100062.09;;;19.96;28.55
30875;BME280;17581;43.222;27.924;2023-02-21T15:10:31;100052.94;;;19.82;28.67
30875;BME280;17581;43.222;27.924;2023-02-21T15:13:03;100044.97;;;19.81;28.91
30875;BME280;17581;43.222;27.924;2023-02-21T15:15:33;100052.50;;;19.79;28.82
30875;BME280;17581;43.222;27.924;2023-02-21T15:18:07;100061.47;;;19.73;29.03
30875;BME280;17581;43.222;27.924;2023-02-21T15:20:36;100057.06;;;19.72;28.95
30875;BME280;17581;43.222;27.924;2023-02-21T15:25:33;100057.59;;;19.61;29.11
30875;BME280;17581;43.222;27.924;2023-02-21T15:28:00;100058.72;;;19.45;29.31
30875;BME280;17581;43.222;27.924;2023-02-21T15:30:33;100080.34;;;19.46;29.39
30875;BME280;17581;43.222;27.924;2023-02-21T15:35:33;100067.22;;;19.35;29.50
30875;BME280;17581;43.222;27.924;2023-02-21T15:38:02;100076.41;;;19.34;29.54
30875;BME280;17581;43.222;27.924;2023-02-21T15:40:30;100064.34;;;19.22;29.85
30875;BME280;17581;43.222;27.924;2023-02-21T15:42:55;100075.00;;;19.17;29.90
30875;BME280;17581;43.222;27.924;2023-02-21T15:45:43;100069.09;;;19.14;30.05
30875;BME280;17581;43.222;27.924;2023-02-21T15:48:09;100047.19;;;19.07;30.21
30875;BME280;17581;43.222;27.924;2023-02-21T15:50:41;100015.00;;;18.96;30.37
30875;BME280;17581;43.222;27.924;2023-02-21T15:53:23;100010.59;;;18.95;30.50
30875;BME280;17581;43.222;27.924;2023-02-21T15:55:51;100019.34;;;18.90;30.62
30875;BME280;17581;43.222;27.924;2023-02-21T15:58:21;100054.50;;;18.85;30.81
30875;BME280;17581;43.222;27.924;2023-02-21T16:01:02;100095.28;;;18.79;30.78
30875;BME280;17581;43.222;27.924;2023-02-21T16:03:39;100111.75;;;18.71;31.08
30875;BME280;17581;43.222;27.924;2023-02-21T16:11:17;100117.25;;;18.48;31.49
30875;BME280;17581;43.222;27.924;2023-02-21T16:13:43;100120.50;;;18.52;31.67
30875;BME280;17581;43.222;27.924;2023-02-21T16:16:09;100117.84;;;18.43;31.71
30875;BME280;17581;43.222;27.924;2023-02-21T16:18:34;100137.28;;;18.40;31.80
30875;BME280;17581;43.222;27.924;2023-02-21T16:21:06;100150.22;;;18.38;32.06
30875;BME280;17581;43.222;27.924;2023-02-21T16:23:42;100145.13;;;18.35;32.06
30875;BME280;17581;43.222;27.924;2023-02-21T16:28:39;100144.66;;;18.32;32.16